sensor_id;sensor_type;location;lat;lon;timestamp;P1;durP1;ratioP1;P2;durP2;ratioP2
37389;SDS011;39679;49.000;8.390;2022-08-19T00:00:25;10.43;;;9.43;;
37389;SDS011;39679;49.000;8.390;2022-08-19T00:05:25;10.25;;;9.25;;
37389;SDS011;39679;49.000;8.390;2022-08-19T00:10:26;9.60;;;8.68;;
37389;SDS011;39679;49.000;8.390;2022-08-19T00:15:26;9.48;;;8.60;;
37389;SDS011;39679;49.000;8.390;2022-08-19T00:20:26;14.88;;;10.68;;
37389;SDS011;39679;49.000;8.390;2022-08-19T00:25:27;12.60;;;9.95;;
37389;SDS011;39679;49.000;8.390;2022-08-19T00:30:27;10.53;;;9.43;;
37389;SDS011;39679;49.000;8.390;2022-08-19T00:35:28;10.57;;;9.57;;
37389;SDS011;39679;49.000;8.390;2022-08-19T00:40:28;11.45;;;9.80;;
37389;SDS011;39679;49.000;8.390;2022-08-19T00:45:29;10.00;;;9.02;;
37389;SDS011;39679;49.000;8.390;2022-08-19T00:50:29;11.18;;;8.93;;
37389;SDS011;39679;49.000;8.390;2022-08-19T00:55:30;9.82;;;8.90;;
37389;SDS011;39679;49.000;8.390;2022-08-19T01:00:32;9.75;;;8.85;;
37389;SDS011;39679;49.000;8.390;2022-08-19T01:05:33;9.90;;;9.00;;
37389;SDS011;39679;49.000;8.390;2022-08-19T01:10:52;8.95;;;8.05;;
37389;SDS011;39679;49.000;8.390;2022-08-19T01:15:58;11.02;;;10.02;;
37389;SDS011;39679;49.000;8.390;2022-08-19T01:21:05;11.80;;;10.70;;
37389;SDS011;39679;49.000;8.390;2022-08-19T01:26:18;11.43;;;10.32;;
37389;SDS011;39679;49.000;8.390;2022-08-19T01:31:22;10.90;;;9.85;;
37389;SDS011;39679;49.000;8.390;2022-08-19T01:36:29;11.00;;;9.20;;
37389;SDS011;39679;49.000;8.390;2022-08-19T01:41:33;10.38;;;9.38;;
37389;SDS011;39679;49.000;8.390;2022-08-19T01:46:35;9.68;;;8.77;;
37389;SDS011;39679;49.000;8.390;2022-08-19T01:51:36;10.90;;;9.90;;
37389;SDS011;39679;49.000;8.390;2022-08-19T01:56:37;11.50;;;10.40;;
37389;SDS011;39679;49.000;8.390;2022-08-19T02:01:39;10.60;;;9.52;;
37389;SDS011;39679;49.000;8.390;2022-08-19T02:06:39;11.02;;;9.93;;
37389;SDS011;39679;49.000;8.390;2022-08-19T02:11:40;12.10;;;10.90;;
37389;SDS011;39679;49.000;8.390;2022-08-19T02:16:41;11.10;;;9.90;;
37389;SDS011;39679;49.000;8.390;2022-08-19T02:21:41;11.88;;;10.68;;
37389;SDS011;39679;49.000;8.390;2022-08-19T02:26:42;11.10;;;9.95;;
37389;SDS011;39679;49.000;8.390;2022-08-19T02:31:42;13.52;;;11.93;;
37389;SDS011;39679;49.000;8.390;2022-08-19T02:36:42;12.13;;;10.93;;
37389;SDS011;39679;49.000;8.390;2022-08-19T02:41:43;12.07;;;10.93;;
37389;SDS011;39679;49.000;8.390;2022-08-19T02:46:44;12.10;;;10.88;;
37389;SDS011;39679;49.000;8.390;2022-08-19T02:51:46;11.70;;;10.60;;
37389;SDS011;39679;49.000;8.390;2022-08-19T02:56:46;11.20;;;10.10;;
37389;SDS011;39679;49.000;8.390;2022-08-19T03:01:47;11.23;;;10.13;;
37389;SDS011;39679;49.000;8.390;2022-08-19T03:06:47;12.30;;;10.80;;
37389;SDS011;39679;49.000;8.390;2022-08-19T03:11:47;11.50;;;9.90;;
37389;SDS011;39679;49.000;8.390;2022-08-19T03:16:50;12.55;;;10.68;;
37389;SDS011;39679;49.000;8.390;2022-08-19T03:21:51;13.25;;;11.98;;
37389;SDS011;39679;49.000;8.390;2022-08-19T03:26:54;12.35;;;11.15;;
37389;SDS011;39679;49.000;8.390;2022-08-19T03:31:54;12.85;;;11.60;;
37389;SDS011;39679;49.000;8.390;2022-08-19T03:36:56;12.77;;;11.50;;
37389;SDS011;39679;49.000;8.390;2022-08-19T03:41:58;14.15;;;12.27;;
37389;SDS011;39679;49.000;8.390;2022-08-19T03:46:59;12.65;;;11.38;;
37389;SDS011;39679;49.000;8.390;2022-08-19T03:52:00;13.32;;;12.07;;
37389;SDS011;39679;49.000;8.390;2022-08-19T03:57:01;13.60;;;11.30;;
37389;SDS011;39679;49.000;8.390;2022-08-19T04:02:03;12.60;;;11.40;;
37389;SDS011;39679;49.000;8.390;2022-08-19T04:07:07;12.50;;;11.20;;
37389;SDS011;39679;49.000;8.390;2022-08-19T04:12:09;13.27;;;11.98;;
37389;SDS011;39679;49.000;8.390;2022-08-19T04:17:09;13.75;;;12.32;;
37389;SDS011;39679;49.000;8.390;2022-08-19T04:22:10;13.85;;;12.55;;
37389;SDS011;39679;49.000;8.390;2022-08-19T04:27:10;14.35;;;12.95;;
37389;SDS011;39679;49.000;8.390;2022-08-19T04:32:10;14.15;;;12.55;;
37389;SDS011;39679;49.000;8.390;2022-08-19T04:37:11;13.93;;;12.18;;
37389;SDS011;39679;49.000;8.390;2022-08-19T04:42:11;14.88;;;13.32;;
37389;SDS011;39679;49.000;8.390;2022-08-19T04:47:12;12.98;;;11.50;;
37389;SDS011;39679;49.000;8.390;2022-08-19T04:52:12;14.32;;;13.00;;
37389;SDS011;39679;49.000;8.390;2022-08-19T04:57:13;14.73;;;13.20;;
37389;SDS011;39679;49.000;8.390;2022-08-19T05:02:13;14.68;;;13.27;;
37389;SDS011;39679;49.000;8.390;2022-08-19T05:07:13;14.55;;;13.05;;
37389;SDS011;39679;49.000;8.390;2022-08-19T05:12:14;13.32;;;12.13;;
37389;SDS011;39679;49.000;8.390;2022-08-19T05:17:15;15.10;;;13.60;;
37389;SDS011;39679;49.000;8.390;2022-08-19T05:22:15;13.50;;;12.20;;
37389;SDS011;39679;49.000;8.390;2022-08-19T05:27:15;15.43;;;12.75;;
37389;SDS011;39679;49.000;8.390;2022-08-19T05:32:16;15.35;;;13.65;;
37389;SDS011;39679;49.000;8.390;2022-08-19T05:37:16;14.60;;;13.20;;
37389;SDS011;39679;49.000;8.390;2022-08-19T05:42:16;15.07;;;13.48;;
37389;SDS011;39679;49.000;8.390;2022-08-19T05:47:17;15.52;;;14.02;;
37389;SDS011;39679;49.000;8.390;2022-08-19T05:52:18;15.70;;;13.23;;
37389;SDS011;39679;49.000;8.390;2022-08-19T05:57:19;14.63;;;13.23;;
37389;SDS011;39679;49.000;8.390;2022-08-19T06:02:19;15.45;;;13.85;;
37389;SDS011;39679;49.000;8.390;2022-08-19T06:07:20;13.90;;;12.60;;
37389;SDS011;39679;49.000;8.390;2022-08-19T06:12:20;13.63;;;11.93;;
37389;SDS011;39679;49.000;8.390;2022-08-19T06:17:21;13.93;;;12.25;;
37389;SDS011;39679;49.000;8.390;2022-08-19T06:22:21;14.90;;;13.40;;
37389;SDS011;39679;49.000;8.390;2022-08-19T06:27:22;15.10;;;12.15;;
37389;SDS011;39679;49.000;8.390;2022-08-19T06:32:23;14.07;;;12.70;;
37389;SDS011;39679;49.000;8.390;2022-08-19T06:37:23;14.68;;;12.32;;
37389;SDS011;39679;49.000;8.390;2022-08-19T06:42:24;13.90;;;12.35;;
37389;SDS011;39679;49.000;8.390;2022-08-19T06:47:24;13.55;;;12.07;;
37389;SDS011;39679;49.000;8.390;2022-08-19T06:52:25;15.98;;;12.70;;
37389;SDS011;39679;49.000;8.390;2022-08-19T06:57:25;14.45;;;12.52;;
37389;SDS011;39679;49.000;8.390;2022-08-19T07:02:26;13.55;;;12.15;;
37389;SDS011;39679;49.000;8.390;2022-08-19T07:07:27;13.40;;;12.10;;
37389;SDS011;39679;49.000;8.390;2022-08-19T07:12:28;15.83;;;11.80;;
37389;SDS011;39679;49.000;8.390;2022-08-19T07:17:30;13.25;;;11.70;;
37389;SDS011;39679;49.000;8.390;2022-08-19T07:22:31;12.70;;;11.50;;
37389;SDS011;39679;49.000;8.390;2022-08-19T07:27:31;12.47;;;10.60;;
37389;SDS011;39679;49.000;8.390;2022-08-19T07:32:31;12.53;;;11.17;;
37389;SDS011;39679;49.000;8.390;2022-08-19T07:37:32;13.53;;;11.47;;
37389;SDS011;39679;49.000;8.390;2022-08-19T07:42:32;11.70;;;10.50;;
37389;SDS011;39679;49.000;8.390;2022-08-19T07:47:33;11.30;;;10.10;;
37389;SDS011;39679;49.000;8.390;2022-08-19T07:52:33;11.38;;;10.18;;
37389;SDS011;39679;49.000;8.390;2022-08-19T07:57:34;10.75;;;9.65;;
37389;SDS011;39679;49.000;8.390;2022-08-19T08:02:34;11.20;;;10.10;;
37389;SDS011;39679;49.000;8.390;2022-08-19T08:07:34;11.67;;;9.97;;
37389;SDS011;39679;49.000;8.390;2022-08-19T08:12:39;10.33;;;9.00;;
37389;SDS011;39679;49.000;8.390;2022-08-19T08:22:43;13.05;;;9.80;;
37389;SDS011;39679;49.000;8.390;2022-08-19T08:27:45;9.95;;;8.95;;
37389;SDS011;39679;49.000;8.390;2022-08-19T08:32:46;10.52;;;9.43;;
37389;SDS011;39679;49.000;8.390;2022-08-19T08:37:47;9.05;;;8.05;;
37389;SDS011;39679;49.000;8.390;2022-08-19T08:42:55;10.48;;;8.75;;
37389;SDS011;39679;49.000;8.390;2022-08-19T08:48:02;8.65;;;7.82;;
37389;SDS011;39679;49.000;8.390;2022-08-19T08:53:17;9.00;;;8.10;;
37389;SDS011;39679;49.000;8.390;2022-08-19T08:58:27;13.30;;;8.02;;
37389;SDS011;39679;49.000;8.390;2022-08-19T09:03:32;10.32;;;7.10;;
37389;SDS011;39679;49.000;8.390;2022-08-19T09:08:51;6.97;;;6.28;;
37389;SDS011;39679;49.000;8.390;2022-08-19T09:19:24;6.20;;;5.60;;
37389;SDS011;39679;49.000;8.390;2022-08-19T09:24:25;6.28;;;5.05;;
37389;SDS011;39679;49.000;8.390;2022-08-19T09:29:25;6.47;;;4.80;;
37389;SDS011;39679;49.000;8.390;2022-08-19T09:34:25;7.93;;;5.00;;
37389;SDS011;39679;49.000;8.390;2022-08-19T09:39:26;7.33;;;5.00;;
37389;SDS011;39679;49.000;8.390;2022-08-19T09:44:26;5.05;;;4.10;;
37389;SDS011;39679;49.000;8.390;2022-08-19T09:49:26;5.40;;;4.28;;
37389;SDS011;39679;49.000;8.390;2022-08-19T09:54:27;6.67;;;4.00;;
37389;SDS011;39679;49.000;8.390;2022-08-19T09:59:31;6.18;;;4.30;;
37389;SDS011;39679;49.000;8.390;2022-08-19T10:04:39;5.57;;;4.63;;
37389;SDS011;39679;49.000;8.390;2022-08-19T10:09:39;4.88;;;4.13;;
37389;SDS011;39679;49.000;8.390;2022-08-19T10:14:40;5.37;;;4.87;;
37389;SDS011;39679;49.000;8.390;2022-08-19T10:19:40;5.45;;;4.78;;
37389;SDS011;39679;49.000;8.390;2022-08-19T10:24:41;7.10;;;4.70;;
37389;SDS011;39679;49.000;8.390;2022-08-19T10:29:41;5.57;;;4.37;;
37389;SDS011;39679;49.000;8.390;2022-08-19T10:34:42;6.10;;;5.10;;
37389;SDS011;39679;49.000;8.390;2022-08-19T10:39:42;7.10;;;4.15;;
37389;SDS011;39679;49.000;8.390;2022-08-19T10:44:46;8.18;;;4.35;;
37389;SDS011;39679;49.000;8.390;2022-08-19T10:49:48;5.22;;;4.57;;
37389;SDS011;39679;49.000;8.390;2022-08-19T10:54:49;5.72;;;4.25;;
37389;SDS011;39679;49.000;8.390;2022-08-19T10:59:49;4.93;;;4.27;;
37389;SDS011;39679;49.000;8.390;2022-08-19T11:04:49;5.30;;;4.40;;
37389;SDS011;39679;49.000;8.390;2022-08-19T11:09:50;6.45;;;4.97;;
37389;SDS011;39679;49.000;8.390;2022-08-19T11:14:50;6.93;;;4.85;;
37389;SDS011;39679;49.000;8.390;2022-08-19T11:19:50;8.13;;;4.40;;
37389;SDS011;39679;49.000;8.390;2022-08-19T11:24:51;7.27;;;4.73;;
37389;SDS011;39679;49.000;8.390;2022-08-19T11:29:51;5.10;;;4.60;;
37389;SDS011;39679;49.000;8.390;2022-08-19T11:34:52;6.50;;;5.50;;
37389;SDS011;39679;49.000;8.390;2022-08-19T11:39:52;7.57;;;5.93;;
37389;SDS011;39679;49.000;8.390;2022-08-19T11:44:53;6.32;;;5.63;;
37389;SDS011;39679;49.000;8.390;2022-08-19T11:49:53;6.60;;;5.15;;
37389;SDS011;39679;49.000;8.390;2022-08-19T11:54:54;5.73;;;4.80;;
37389;SDS011;39679;49.000;8.390;2022-08-19T11:59:54;7.37;;;5.10;;
37389;SDS011;39679;49.000;8.390;2022-08-19T12:04:54;6.10;;;5.50;;
37389;SDS011;39679;49.000;8.390;2022-08-19T12:09:55;7.70;;;5.05;;
37389;SDS011;39679;49.000;8.390;2022-08-19T12:14:55;5.97;;;4.97;;
37389;SDS011;39679;49.000;8.390;2022-08-19T12:19:55;5.37;;;4.80;;
37389;SDS011;39679;49.000;8.390;2022-08-19T12:24:56;5.17;;;4.67;;
37389;SDS011;39679;49.000;8.390;2022-08-19T12:29:56;5.97;;;4.73;;
37389;SDS011;39679;49.000;8.390;2022-08-19T12:34:56;5.90;;;5.30;;
37389;SDS011;39679;49.000;8.390;2022-08-19T12:39:57;7.33;;;5.00;;
37389;SDS011;39679;49.000;8.390;2022-08-19T12:44:57;5.93;;;4.68;;
37389;SDS011;39679;49.000;8.390;2022-08-19T12:49:58;6.55;;;4.90;;
37389;SDS011;39679;49.000;8.390;2022-08-19T12:54:58;6.47;;;5.00;;
37389;SDS011;39679;49.000;8.390;2022-08-19T13:05:12;5.53;;;5.03;;
37389;SDS011;39679;49.000;8.390;2022-08-19T13:10:16;6.18;;;4.45;;
37389;SDS011;39679;49.000;8.390;2022-08-19T13:15:20;5.20;;;4.70;;
37389;SDS011;39679;49.000;8.390;2022-08-19T13:20:22;6.75;;;4.47;;
37389;SDS011;39679;49.000;8.390;2022-08-19T13:25:23;6.18;;;4.50;;
37389;SDS011;39679;49.000;8.390;2022-08-19T13:30:24;38.60;;;13.07;;
37389;SDS011;39679;49.000;8.390;2022-08-19T13:35:24;23.20;;;7.93;;
37389;SDS011;39679;49.000;8.390;2022-08-19T13:40:24;16.17;;;6.25;;
37389;SDS011;39679;49.000;8.390;2022-08-19T13:45:25;11.38;;;5.25;;
37389;SDS011;39679;49.000;8.390;2022-08-19T13:50:28;7.70;;;3.95;;
37389;SDS011;39679;49.000;8.390;2022-08-19T13:55:30;6.20;;;3.60;;
37389;SDS011;39679;49.000;8.390;2022-08-19T14:00:32;5.47;;;3.35;;
37389;SDS011;39679;49.000;8.390;2022-08-19T14:05:36;4.05;;;3.00;;
37389;SDS011;39679;49.000;8.390;2022-08-19T14:10:37;3.40;;;2.83;;
37389;SDS011;39679;49.000;8.390;2022-08-19T14:15:37;6.20;;;3.03;;
37389;SDS011;39679;49.000;8.390;2022-08-19T14:20:38;3.28;;;2.70;;
37389;SDS011;39679;49.000;8.390;2022-08-19T14:25:38;2.87;;;2.57;;
37389;SDS011;39679;49.000;8.390;2022-08-19T14:30:38;3.07;;;2.77;;
37389;SDS011;39679;49.000;8.390;2022-08-19T14:35:39;3.58;;;2.67;;
37389;SDS011;39679;49.000;8.390;2022-08-19T14:40:39;3.10;;;2.90;;
37389;SDS011;39679;49.000;8.390;2022-08-19T14:45:39;3.17;;;2.88;;
37389;SDS011;39679;49.000;8.390;2022-08-19T14:50:40;3.17;;;2.87;;
37389;SDS011;39679;49.000;8.390;2022-08-19T14:55:41;3.28;;;2.97;;
37389;SDS011;39679;49.000;8.390;2022-08-19T15:00:42;3.80;;;3.33;;
37389;SDS011;39679;49.000;8.390;2022-08-19T15:05:42;3.03;;;2.80;;
37389;SDS011;39679;49.000;8.390;2022-08-19T15:10:42;3.67;;;3.30;;
37389;SDS011;39679;49.000;8.390;2022-08-19T15:15:44;3.63;;;3.30;;
37389;SDS011;39679;49.000;8.390;2022-08-19T15:20:45;4.10;;;3.60;;
37389;SDS011;39679;49.000;8.390;2022-08-19T15:25:45;4.22;;;3.53;;
37389;SDS011;39679;49.000;8.390;2022-08-19T15:30:46;4.00;;;2.95;;
37389;SDS011;39679;49.000;8.390;2022-08-19T15:35:46;3.70;;;3.40;;
37389;SDS011;39679;49.000;8.390;2022-08-19T15:40:48;5.00;;;3.40;;
37389;SDS011;39679;49.000;8.390;2022-08-19T15:45:49;3.28;;;2.97;;
37389;SDS011;39679;49.000;8.390;2022-08-19T15:50:49;3.80;;;3.50;;
37389;SDS011;39679;49.000;8.390;2022-08-19T15:55:49;4.13;;;3.47;;
37389;SDS011;39679;49.000;8.390;2022-08-19T16:00:50;3.77;;;3.20;;
37389;SDS011;39679;49.000;8.390;2022-08-19T16:05:50;3.60;;;3.30;;
37389;SDS011;39679;49.000;8.390;2022-08-19T16:10:50;3.63;;;3.00;;
37389;SDS011;39679;49.000;8.390;2022-08-19T16:15:51;3.77;;;3.40;;
37389;SDS011;39679;49.000;8.390;2022-08-19T16:20:51;3.47;;;3.03;;
37389;SDS011;39679;49.000;8.390;2022-08-19T16:25:51;4.00;;;3.53;;
37389;SDS011;39679;49.000;8.390;2022-08-19T16:30:52;4.17;;;3.30;;
37389;SDS011;39679;49.000;8.390;2022-08-19T16:35:53;4.72;;;3.70;;
37389;SDS011;39679;49.000;8.390;2022-08-19T16:40:53;4.18;;;3.20;;
37389;SDS011;39679;49.000;8.390;2022-08-19T16:45:54;4.15;;;3.30;;
37389;SDS011;39679;49.000;8.390;2022-08-19T16:50:58;3.80;;;3.13;;
37389;SDS011;39679;49.000;8.390;2022-08-19T16:55:59;4.07;;;3.40;;
37389;SDS011;39679;49.000;8.390;2022-08-19T17:01:01;3.80;;;3.30;;
37389;SDS011;39679;49.000;8.390;2022-08-19T17:06:07;4.22;;;3.60;;
37389;SDS011;39679;49.000;8.390;2022-08-19T17:11:20;3.53;;;3.20;;
37389;SDS011;39679;49.000;8.390;2022-08-19T17:16:23;4.55;;;3.17;;
37389;SDS011;39679;49.000;8.390;2022-08-19T17:21:26;8.52;;;3.83;;
37389;SDS011;39679;49.000;8.390;2022-08-19T17:26:28;3.53;;;3.13;;
37389;SDS011;39679;49.000;8.390;2022-08-19T17:31:29;6.07;;;3.15;;
37389;SDS011;39679;49.000;8.390;2022-08-19T17:36:31;6.18;;;3.88;;
37389;SDS011;39679;49.000;8.390;2022-08-19T17:41:32;9.70;;;4.30;;
37389;SDS011;39679;49.000;8.390;2022-08-19T17:46:32;5.07;;;3.80;;
37389;SDS011;39679;49.000;8.390;2022-08-19T17:56:33;5.97;;;4.40;;
37389;SDS011;39679;49.000;8.390;2022-08-19T18:01:33;4.93;;;4.15;;
37389;SDS011;39679;49.000;8.390;2022-08-19T18:06:34;4.85;;;4.35;;
37389;SDS011;39679;49.000;8.390;2022-08-19T18:11:35;5.38;;;3.85;;
37389;SDS011;39679;49.000;8.390;2022-08-19T18:16:35;9.20;;;4.17;;
37389;SDS011;39679;49.000;8.390;2022-08-19T18:21:35;4.80;;;4.30;;
37389;SDS011;39679;49.000;8.390;2022-08-19T18:26:36;6.07;;;3.93;;
37389;SDS011;39679;49.000;8.390;2022-08-19T18:31:36;4.53;;;4.13;;
37389;SDS011;39679;49.000;8.390;2022-08-19T18:36:37;5.38;;;4.10;;
37389;SDS011;39679;49.000;8.390;2022-08-19T18:41:37;5.03;;;3.70;;
37389;SDS011;39679;49.000;8.390;2022-08-19T18:46:38;6.10;;;3.90;;
37389;SDS011;39679;49.000;8.390;2022-08-19T18:51:38;4.57;;;3.57;;
37389;SDS011;39679;49.000;8.390;2022-08-19T18:56:39;4.47;;;3.72;;
37389;SDS011;39679;49.000;8.390;2022-08-19T19:01:41;4.37;;;3.57;;
37389;SDS011;39679;49.000;8.390;2022-08-19T19:06:43;5.22;;;3.45;;
37389;SDS011;39679;49.000;8.390;2022-08-19T19:11:44;4.70;;;3.40;;
37389;SDS011;39679;49.000;8.390;2022-08-19T19:16:47;5.03;;;3.33;;
37389;SDS011;39679;49.000;8.390;2022-08-19T19:21:49;4.60;;;3.30;;
37389;SDS011;39679;49.000;8.390;2022-08-19T19:26:50;5.10;;;3.13;;
37389;SDS011;39679;49.000;8.390;2022-08-19T19:31:52;3.40;;;3.10;;
37389;SDS011;39679;49.000;8.390;2022-08-19T19:36:52;3.95;;;3.17;;
37389;SDS011;39679;49.000;8.390;2022-08-19T19:41:53;4.75;;;2.92;;
37389;SDS011;39679;49.000;8.390;2022-08-19T19:46:53;3.47;;;2.63;;
37389;SDS011;39679;49.000;8.390;2022-08-19T19:51:53;3.17;;;2.80;;
37389;SDS011;39679;49.000;8.390;2022-08-19T19:56:54;3.60;;;2.50;;
37389;SDS011;39679;49.000;8.390;2022-08-19T20:01:54;3.20;;;2.60;;
37389;SDS011;39679;49.000;8.390;2022-08-19T20:06:54;3.60;;;2.90;;
37389;SDS011;39679;49.000;8.390;2022-08-19T20:11:55;3.07;;;2.30;;
37389;SDS011;39679;49.000;8.390;2022-08-19T20:16:56;3.88;;;2.97;;
37389;SDS011;39679;49.000;8.390;2022-08-19T20:21:58;4.40;;;2.70;;
37389;SDS011;39679;49.000;8.390;2022-08-19T20:27:00;2.75;;;2.35;;
37389;SDS011;39679;49.000;8.390;2022-08-19T20:32:02;5.28;;;2.50;;
37389;SDS011;39679;49.000;8.390;2022-08-19T20:37:02;5.35;;;2.50;;
37389;SDS011;39679;49.000;8.390;2022-08-19T20:42:03;3.67;;;2.47;;
37389;SDS011;39679;49.000;8.390;2022-08-19T20:47:03;3.75;;;2.63;;
37389;SDS011;39679;49.000;8.390;2022-08-19T20:52:04;3.00;;;2.30;;
37389;SDS011;39679;49.000;8.390;2022-08-19T20:57:04;3.30;;;2.13;;
37389;SDS011;39679;49.000;8.390;2022-08-19T21:02:05;2.38;;;2.10;;
37389;SDS011;39679;49.000;8.390;2022-08-19T21:07:05;3.53;;;2.20;;
37389;SDS011;39679;49.000;8.390;2022-08-19T21:12:06;4.40;;;2.13;;
37389;SDS011;39679;49.000;8.390;2022-08-19T21:17:08;3.47;;;1.70;;
37389;SDS011;39679;49.000;8.390;2022-08-19T21:22:08;4.45;;;1.60;;
37389;SDS011;39679;49.000;8.390;2022-08-19T21:27:09;2.47;;;1.70;;
37389;SDS011;39679;49.000;8.390;2022-08-19T21:32:09;1.90;;;1.33;;
37389;SDS011;39679;49.000;8.390;2022-08-19T21:37:10;2.28;;;1.70;;
37389;SDS011;39679;49.000;8.390;2022-08-19T21:42:10;5.67;;;1.50;;
37389;SDS011;39679;49.000;8.390;2022-08-19T21:47:11;1.63;;;1.30;;
37389;SDS011;39679;49.000;8.390;2022-08-19T21:52:12;1.45;;;1.02;;
37389;SDS011;39679;49.000;8.390;2022-08-19T21:57:12;1.95;;;1.35;;
37389;SDS011;39679;49.000;8.390;2022-08-19T22:02:13;2.57;;;1.00;;
37389;SDS011;39679;49.000;8.390;2022-08-19T22:07:14;1.52;;;1.00;;
37389;SDS011;39679;49.000;8.390;2022-08-19T22:12:21;1.10;;;1.00;;
37389;SDS011;39679;49.000;8.390;2022-08-19T22:17:24;3.08;;;1.13;;
37389;SDS011;39679;49.000;8.390;2022-08-19T22:22:26;1.38;;;1.00;;
37389;SDS011;39679;49.000;8.390;2022-08-19T22:27:29;2.67;;;1.10;;
37389;SDS011;39679;49.000;8.390;2022-08-19T22:32:30;0.80;;;0.77;;
37389;SDS011;39679;49.000;8.390;2022-08-19T22:37:30;1.40;;;0.93;;
37389;SDS011;39679;49.000;8.390;2022-08-19T22:42:30;1.53;;;0.90;;
37389;SDS011;39679;49.000;8.390;2022-08-19T22:47:31;0.73;;;0.73;;
37389;SDS011;39679;49.000;8.390;2022-08-19T22:52:31;1.33;;;0.90;;
37389;SDS011;39679;49.000;8.390;2022-08-19T22:57:31;1.08;;;0.90;;
37389;SDS011;39679;49.000;8.390;2022-08-19T23:02:33;2.47;;;0.80;;
37389;SDS011;39679;49.000;8.390;2022-08-19T23:07:35;5.03;;;0.80;;
37389;SDS011;39679;49.000;8.390;2022-08-19T23:12:40;4.22;;;0.57;;
37389;SDS011;39679;49.000;8.390;2022-08-19T23:17:42;1.75;;;0.90;;
37389;SDS011;39679;49.000;8.390;2022-08-19T23:22:43;1.88;;;0.82;;
37389;SDS011;39679;49.000;8.390;2022-08-19T23:27:45;1.95;;;0.70;;
37389;SDS011;39679;49.000;8.390;2022-08-19T23:32:46;1.27;;;0.80;;
37389;SDS011;39679;49.000;8.390;2022-08-19T23:37:46;0.80;;;0.80;;
37389;SDS011;39679;49.000;8.390;2022-08-19T23:42:47;0.60;;;0.60;;
37389;SDS011;39679;49.000;8.390;2022-08-19T23:47:49;4.28;;;1.00;;
37389;SDS011;39679;49.000;8.390;2022-08-19T23:52:53;3.85;;;1.05;;
37389;SDS011;39679;49.000;8.390;2022-08-19T23:57:55;2.80;;;0.98;;
